Time;durP1;ratioP1;P1;durP2;ratioP2;P2;SDS_P1;SDS_P2;PMS_P1;PMS_P2;Temp;Humidity;BMP_temperature;BMP_pressure;BME280_temperature;BME280_humidity;BME280_pressure;Samples;Min_cycle;Max_cycle;Signal;HPM_P1;HPM_P2
2023/02/08 00:01:24;;;;;;;0.50;0.50;;;;;;;3.39;100.00;102580.88;5070138;28;20029;-71
2023/02/08 00:03:49;;;;;;;0.45;0.45;;;;;;;3.42;100.00;102579.38;5088078;28;20036;-71
2023/02/08 00:06:15;;;;;;;0.40;0.40;;;;;;;3.45;100.00;102579.53;5088027;28;20047;-70
2023/02/08 00:08:42;;;;;;;0.50;0.50;;;;;;;3.45;100.00;102574.41;5070345;28;20542;-70
2023/02/08 00:11:09;;;;;;;0.50;0.50;;;;;;;3.46;100.00;102585.56;5088466;28;20029;-71
2023/02/08 00:13:35;;;;;;;0.50;0.50;;;;;;;3.46;100.00;102578.75;5088382;28;20035;-70
2023/02/08 00:16:00;;;;;;;0.45;0.45;;;;;;;3.47;100.00;102577.94;5088682;28;20020;-70
2023/02/08 00:18:26;;;;;;;0.50;0.50;;;;;;;3.50;100.00;102577.22;5069805;28;20024;-71
2023/02/08 00:20:51;;;;;;;0.50;0.50;;;;;;;3.50;100.00;102577.22;5087626;28;20032;-71
2023/02/08 00:23:17;;;;;;;0.50;0.50;;;;;;;3.51;100.00;102575.56;5087701;28;20030;-71
2023/02/08 00:25:43;;;;;;;0.50;0.50;;;;;;;3.51;100.00;102581.59;5088076;28;20050;-70
2023/02/08 00:28:12;;;;;;;0.50;0.50;;;;;;;3.53;100.00;102581.69;5088162;28;20066;-71
2023/02/08 00:30:38;;;;;;;0.50;0.50;;;;;;;3.49;100.00;102567.75;5087679;28;20048;-72
2023/02/08 00:33:03;;;;;;;0.50;0.50;;;;;;;3.53;100.00;102571.41;5087530;28;20074;-71
2023/02/08 00:35:29;;;;;;;0.50;0.50;;;;;;;3.54;100.00;102575.72;5087333;28;20062;-72
2023/02/08 00:37:55;;;;;;;0.50;0.50;;;;;;;3.58;100.00;102567.38;5069400;28;20016;-71
2023/02/08 00:40:21;;;;;;;0.50;0.50;;;;;;;3.58;100.00;102564.81;5087429;28;20111;-71
2023/02/08 00:42:46;;;;;;;0.50;0.50;;;;;;;3.58;100.00;102565.72;5087005;28;20085;-70
2023/02/08 00:45:12;;;;;;;0.50;0.50;;;;;;;3.62;100.00;102566.78;5087148;28;20052;-71
2023/02/08 00:47:37;;;;;;;0.50;0.50;;;;;;;3.62;100.00;102555.59;5086685;28;20047;-71
2023/02/08 00:50:03;;;;;;;0.52;0.52;;;;;;;3.65;100.00;102548.06;5087147;28;20084;-72
2023/02/08 00:52:29;;;;;;;0.50;0.50;;;;;;;3.65;100.00;102542.94;5087052;28;20039;-71
2023/02/08 00:54:54;;;;;;;0.50;0.50;;;;;;;3.67;100.00;102549.94;5086972;28;20028;-71
2023/02/08 00:57:20;;;;;;;0.50;0.50;;;;;;;3.69;100.00;102553.44;5087096;28;20031;-71
2023/02/08 00:59:45;;;;;;;0.50;0.50;;;;;;;3.71;100.00;102549.28;5086867;28;20025;-70
2023/02/08 01:02:11;;;;;;;0.50;0.50;;;;;;;3.74;100.00;102552.84;5086908;28;20022;-70
2023/02/08 01:04:36;;;;;;;0.50;0.50;;;;;;;3.75;100.00;102541.75;5086737;28;20076;-70
2023/02/08 01:07:03;;;;;;;0.50;0.50;;;;;;;3.72;100.00;102539.91;5086715;28;20104;-71
2023/02/08 01:09:28;;;;;;;0.50;0.50;;;;;;;3.71;100.00;102541.59;5086995;28;20057;-71
2023/02/08 01:11:54;;;;;;;0.50;0.50;;;;;;;3.77;100.00;102545.28;5086813;28;20084;-71
2023/02/08 01:14:19;;;;;;;0.50;0.50;;;;;;;3.76;100.00;102543.50;5086693;28;20024;-71
2023/02/08 01:16:44;;;;;;;0.50;0.50;;;;;;;3.70;100.00;102528.66;5086792;28;20108;-71
2023/02/08 01:19:10;;;;;;;0.47;0.47;;;;;;;3.76;100.00;102538.38;5086434;28;20037;-72
2023/02/08 01:21:38;;;;;;;0.50;0.50;;;;;;;3.71;100.00;102541.59;5086360;28;20024;-70
2023/02/08 01:24:04;;;;;;;0.50;0.50;;;;;;;3.73;100.00;102531.38;5086327;28;20063;-70
2023/02/08 01:26:31;;;;;;;0.50;0.50;;;;;;;3.73;100.00;102528.81;5086470;28;20028;-70
2023/02/08 01:28:57;;;;;;;0.50;0.50;;;;;;;3.71;100.00;102523.59;5086107;28;20084;-71
2023/02/08 01:31:27;;;;;;;0.47;0.47;;;;;;;3.75;100.00;102526.34;5086488;28;20028;-71
2023/02/08 01:33:53;;;;;;;0.50;0.50;;;;;;;3.75;100.00;102537.50;5086400;28;20024;-71
2023/02/08 01:36:19;;;;;;;0.50;0.50;;;;;;;3.74;100.00;102530.56;5086341;28;20115;-70
2023/02/08 01:38:46;;;;;;;0.50;0.50;;;;;;;3.74;100.00;102540.00;5085922;28;20084;-71
2023/02/08 01:41:18;;;;;;;0.47;0.47;;;;;;;3.74;100.00;102532.28;5085277;28;20033;-70
2023/02/08 01:44:00;;;;;;;0.43;0.43;;;;;;;3.74;100.00;102534.84;5085831;28;20080;-71
2023/02/08 01:46:26;;;;;;;0.50;0.50;;;;;;;3.66;100.00;102517.31;5085825;28;20025;-70
2023/02/08 01:48:54;;;;;;;0.43;0.43;;;;;;;3.68;100.00;102513.16;5086155;28;20032;-71
2023/02/08 01:51:24;;;;;;;0.50;0.50;;;;;;;3.74;100.00;102530.56;5086000;28;20036;-71
2023/02/08 01:53:52;;;;;;;0.50;0.50;;;;;;;3.75;100.00;102534.03;5086180;28;20023;-71
2023/02/08 01:56:22;;;;;;;0.50;0.50;;;;;;;3.79;100.00;102541.09;5085882;28;20024;-71
2023/02/08 01:58:53;;;;;;;0.50;0.50;;;;;;;3.80;100.00;102540.31;5086157;28;20113;-71
2023/02/08 02:01:18;;;;;;;0.50;0.50;;;;;;;3.77;100.00;102537.59;5086017;28;20092;-70
2023/02/08 02:03:44;;;;;;;0.50;0.50;;;;;;;3.83;100.00;102550.75;5085704;28;20055;-71
2023/02/08 02:06:17;;;;;;;0.43;0.43;;;;;;;3.78;100.00;102544.47;5085652;28;20020;-70
2023/02/08 02:09:09;;;;;;;0.40;0.40;;;;;;;3.83;100.00;102556.75;5085634;28;20020;-71
2023/02/08 02:11:35;;;;;;;0.60;0.60;;;;;;;3.79;100.00;102547.13;5067633;28;20030;-71
2023/02/08 02:14:02;;;;;;;0.50;0.50;;;;;;;3.85;100.00;102564.56;5085506;28;20040;-71
2023/02/08 02:16:27;;;;;;;0.50;0.50;;;;;;;3.87;100.00;102562.97;5085607;28;20020;-70
2023/02/08 02:18:53;;;;;;;0.50;0.50;;;;;;;3.87;100.00;102562.97;5085518;28;20055;-71
2023/02/08 02:21:27;;;;;;;0.50;0.50;;;;;;;3.91;100.00;102564.91;5067376;28;20031;-71
2023/02/08 02:24:28;;;;;;;0.50;0.50;;;;;;;3.92;100.00;102570.91;5085384;28;20029;-71
2023/02/08 02:27:21;;;;;;;0.60;0.60;;;;;;;3.92;100.00;102568.34;5085450;28;20094;-70
2023/02/08 02:30:08;;;;;;;0.50;0.50;;;;;;;3.91;100.00;102570.06;5085267;28;20296;-70
2023/02/08 02:33:08;;;;;;;0.50;0.50;;;;;;;3.91;100.00;102569.16;5085334;28;20027;-70
2023/02/08 02:35:56;;;;;;;0.50;0.50;;;;;;;3.89;100.00;102573.31;5085170;28;20115;-69
2023/02/08 02:38:48;;;;;;;0.50;0.50;;;;;;;3.89;100.00;102569.09;5085248;28;20026;-70
2023/02/08 02:45:05;;;;;;;0.50;0.50;;;;;;;3.88;100.00;102571.56;5085023;28;20034;-69
2023/02/08 02:47:47;;;;;;;0.47;0.47;;;;;;;3.90;100.00;102583.69;5063439;28;20104;-69
2023/02/08 02:50:18;;;;;;;0.68;0.68;;;;;;;3.91;100.00;102579.44;5065023;28;20033;-71
2023/02/08 02:52:57;;;;;;;0.60;0.60;;;;;;;3.92;100.00;102579.53;5065019;28;20100;-71
2023/02/08 02:55:25;;;;;;;0.50;0.50;;;;;;;3.94;100.00;102575.38;5064910;28;20025;-70
2023/02/08 02:57:54;;;;;;;0.50;0.50;;;;;;;3.96;100.00;102580.59;5064664;28;20079;-71
2023/02/08 03:00:23;;;;;;;0.50;0.50;;;;;;;3.96;100.00;102586.59;5065213;28;20023;-71
2023/02/08 03:02:48;;;;;;;0.50;0.50;;;;;;;3.99;100.00;102585.00;5064976;28;20033;-70
2023/02/08 03:05:14;;;;;;;0.50;0.50;;;;;;;3.99;100.00;102597.84;5065126;28;20023;-71
2023/02/08 03:08:15;;;;;;;0.40;0.40;;;;;;;3.99;100.00;102609.03;5064914;28;20025;-70
2023/02/08 03:11:13;;;;;;;0.50;0.50;;;;;;;4.00;100.00;102591.91;5065056;28;20044;-69
2023/02/08 03:14:06;;;;;;;0.50;0.50;;;;;;;3.97;100.00;102605.47;5063296;28;20029;-69
2023/02/08 03:16:53;;;;;;;0.50;0.50;;;;;;;3.94;100.00;102601.06;5063680;28;20466;-70
2023/02/08 03:19:24;;;;;;;0.50;0.50;;;;;;;3.96;100.00;102601.16;5063524;28;20080;-70
2023/02/08 03:21:57;;;;;;;0.43;0.43;;;;;;;3.96;100.00;102603.72;5065002;28;20021;-71
2023/02/08 03:24:53;;;;;;;0.50;0.50;;;;;;;3.96;100.00;102601.16;5067303;28;20029;-70
2023/02/08 03:27:31;;;;;;;0.50;0.50;;;;;;;3.96;100.00;102603.72;5063197;28;20061;-69
2023/02/08 03:30:37;;;;;;;0.75;0.75;;;;;;;3.97;100.00;102600.34;5064799;28;20036;-70
2023/02/08 03:33:13;;;;;;;0.60;0.60;;;;;;;3.93;100.00;102595.84;5022585;28;20216;-70
2023/02/08 03:35:51;;;;;;;0.50;0.50;;;;;;;3.94;100.00;102598.50;5022445;28;20049;-69
2023/02/08 03:38:23;;;;;;;0.50;0.50;;;;;;;3.94;100.00;102603.63;5022446;28;20026;-69
2023/02/08 03:40:51;;;;;;;0.50;0.50;;;;;;;3.94;100.00;102605.31;5022668;28;20042;-69
2023/02/08 03:43:25;;;;;;;0.50;0.50;;;;;;;3.94;100.00;102611.34;5022563;28;20030;-69
2023/02/08 03:45:57;;;;;;;0.60;0.60;;;;;;;3.96;100.00;102614.88;5005856;28;20021;-69
2023/02/08 03:48:25;;;;;;;0.50;0.50;;;;;;;3.96;100.00;102614.00;5022443;28;20061;-69
2023/02/08 03:50:53;;;;;;;0.50;0.50;;;;;;;3.88;100.00;102603.31;5006115;28;20462;-70
2023/02/08 03:53:22;;;;;;;0.43;0.43;;;;;;;3.94;100.00;102613.91;5022593;28;20117;-70
2023/02/08 03:55:52;;;;;;;0.50;0.50;;;;;;;3.97;100.00;102618.31;5022485;28;20061;-70
2023/02/08 03:58:25;;;;;;;0.50;0.50;;;;;;;3.97;100.00;102621.78;5022305;28;20096;-69
2023/02/08 04:00:57;;;;;;;0.50;0.50;;;;;;;3.97;100.00;102616.66;5022379;28;20567;-70
2023/02/08 04:03:26;;;;;;;0.60;0.60;;;;;;;3.97;100.00;102619.22;5023992;28;20045;-70
2023/02/08 04:05:51;;;;;;;0.50;0.50;;;;;;;3.96;100.00;102620.00;5027504;28;20049;-70
2023/02/08 04:08:17;;;;;;;0.50;0.50;;;;;;;3.95;100.00;102623.38;5067901;28;20025;-69
2023/02/08 04:10:42;;;;;;;0.50;0.50;;;;;;;3.97;100.00;102621.78;5068082;28;20036;-69
2023/02/08 04:13:08;;;;;;;0.50;0.50;;;;;;;3.96;100.00;102614.00;5067844;28;20021;-69
2023/02/08 04:15:33;;;;;;;0.50;0.50;;;;;;;3.94;100.00;102608.78;5066314;28;20040;-69
2023/02/08 04:17:59;;;;;;;0.50;0.50;;;;;;;3.91;100.00;102607.72;5067874;28;20017;-69
2023/02/08 04:20:24;;;;;;;0.50;0.50;;;;;;;3.90;100.00;102611.97;5067796;28;20031;-68
2023/02/08 04:22:49;;;;;;;0.47;0.47;;;;;;;3.88;100.00;102616.16;5067756;28;20495;-70
2023/02/08 04:25:15;;;;;;;0.50;0.50;;;;;;;3.87;100.00;102614.38;5067590;28;20512;-70
2023/02/08 04:27:40;;;;;;;0.50;0.50;;;;;;;3.86;100.00;102612.59;5067417;28;20091;-69
2023/02/08 04:30:06;;;;;;;0.50;0.50;;;;;;;3.85;100.00;102615.94;5067495;28;20104;-69
2023/02/08 04:32:32;;;;;;;0.50;0.50;;;;;;;3.83;100.00;102626.16;5067459;28;20092;-69
2023/02/08 04:34:58;;;;;;;0.50;0.50;;;;;;;3.81;100.00;102625.19;5067293;28;20025;-69
2023/02/08 04:37:23;;;;;;;0.50;0.50;;;;;;;3.80;100.00;102620.84;5067376;28;20439;-69
2023/02/08 04:39:49;;;;;;;0.50;0.50;;;;;;;3.79;100.00;102620.75;5067530;28;20473;-69
2023/02/08 04:42:14;;;;;;;0.50;0.50;;;;;;;3.80;100.00;102620.84;5067705;28;20493;-71
2023/02/08 04:44:40;;;;;;;0.43;0.43;;;;;;;3.79;100.00;102616.50;5065875;28;20033;-68
2023/02/08 04:47:05;;;;;;;0.50;0.50;;;;;;;3.77;100.00;102615.53;5073158;28;20067;-70
2023/02/08 04:49:30;;;;;;;0.50;0.50;;;;;;;3.78;100.00;102629.28;5087293;28;20032;-70
2023/02/08 04:51:56;;;;;;;0.50;0.50;;;;;;;3.78;100.00;102621.56;5087491;28;20025;-69
2023/02/08 04:54:21;;;;;;;0.50;0.50;;;;;;;3.77;100.00;102617.25;5087387;28;20020;-70
2023/02/08 04:56:47;;;;;;;0.50;0.50;;;;;;;3.75;100.00;102623.97;5087317;28;20150;-70
2023/02/08 04:59:13;;;;;;;0.50;0.50;;;;;;;3.73;100.00;102621.31;5087325;28;20069;-70
2023/02/08 05:01:38;;;;;;;0.40;0.40;;;;;;;3.71;100.00;102610.06;5087154;28;20504;-69
2023/02/08 05:04:03;;;;;;;0.50;0.50;;;;;;;3.68;100.00;102610.78;5087145;28;20058;-69
2023/02/08 05:06:29;;;;;;;0.50;0.50;;;;;;;3.68;100.00;102610.78;5086950;28;20025;-71
2023/02/08 05:08:54;;;;;;;0.50;0.50;;;;;;;3.64;100.00;102616.56;5086888;28;20024;-71
2023/02/08 05:11:23;;;;;;;0.50;0.50;;;;;;;3.59;100.00;102605.13;5087558;28;20051;-71
2023/02/08 05:13:49;;;;;;;0.50;0.50;;;;;;;3.59;100.00;102613.69;5088264;28;20038;-70
2023/02/08 05:16:16;;;;;;;0.50;0.50;;;;;;;3.55;100.00;102609.19;5088126;28;20088;-71
2023/02/08 05:18:41;;;;;;;0.50;0.50;;;;;;;3.56;100.00;102618.66;5088692;28;20044;-71
2023/02/08 05:21:07;;;;;;;0.50;0.50;;;;;;;3.53;100.00;102621.06;5088353;28;20047;-70
2023/02/08 05:23:32;;;;;;;0.43;0.43;;;;;;;3.54;100.00;102622.84;5087893;28;20024;-71
2023/02/08 05:25:58;;;;;;;0.50;0.50;;;;;;;3.53;100.00;102627.91;5087655;28;20548;-71
2023/02/08 05:28:24;;;;;;;0.60;0.60;;;;;;;3.50;100.00;102627.72;5086450;28;20025;-68
2023/02/08 05:30:50;;;;;;;0.50;0.50;;;;;;;3.49;100.00;102631.97;5086497;28;20024;-68
2023/02/08 05:33:16;;;;;;;0.50;0.50;;;;;;;3.44;100.00;102610.28;5086334;28;20031;-70
2023/02/08 05:35:43;;;;;;;0.50;0.50;;;;;;;3.51;100.00;102619.22;5085821;28;20074;-71
2023/02/08 05:38:09;;;;;;;0.50;0.50;;;;;;;3.50;100.00;102618.31;5086211;28;20020;-71
2023/02/08 05:40:34;;;;;;;0.50;0.50;;;;;;;3.49;100.00;102615.66;5086297;28;20020;-71
2023/02/08 05:43:00;;;;;;;0.50;0.50;;;;;;;3.46;100.00;102609.59;5086055;28;20021;-69
2023/02/08 05:45:25;;;;;;;0.55;0.55;;;;;;;3.45;100.00;102609.50;5085952;28;20047;-70
2023/02/08 05:47:51;;;;;;;0.50;0.50;;;;;;;3.44;100.00;102610.28;5085797;28;20579;-70
2023/02/08 05:50:16;;;;;;;0.50;0.50;;;;;;;3.43;100.00;102605.94;5086211;28;20046;-69
2023/02/08 05:52:41;;;;;;;0.50;0.50;;;;;;;3.42;100.00;102599.91;5086053;28;20020;-69
2023/02/08 05:55:07;;;;;;;0.50;0.50;;;;;;;3.43;100.00;102609.41;5085918;28;20080;-71
2023/02/08 05:57:32;;;;;;;0.50;0.50;;;;;;;3.41;100.00;102602.41;5085797;28;20017;-69
2023/02/08 05:59:58;;;;;;;0.50;0.50;;;;;;;3.44;100.00;102603.47;5085344;28;20455;-71
2023/02/08 06:02:23;;;;;;;0.50;0.50;;;;;;;3.44;100.00;102598.31;5085791;28;20524;-71
2023/02/08 06:04:49;;;;;;;0.50;0.50;;;;;;;3.45;100.00;102604.34;5067883;28;20469;-71
2023/02/08 06:07:15;;;;;;;0.50;0.50;;;;;;;3.45;100.00;102592.38;5085630;28;20016;-71
2023/02/08 06:09:40;;;;;;;0.50;0.50;;;;;;;3.43;100.00;102585.41;5085726;28;20052;-70
2023/02/08 06:12:06;;;;;;;0.50;0.50;;;;;;;3.41;100.00;102581.84;5085486;28;20021;-69
2023/02/08 06:14:31;;;;;;;0.50;0.50;;;;;;;3.41;100.00;102582.75;5085289;28;20021;-68
2023/02/08 06:16:57;;;;;;;0.50;0.50;;;;;;;3.42;100.00;102594.78;5085486;28;20055;-71
2023/02/08 06:19:22;;;;;;;0.50;0.50;;;;;;;3.41;100.00;102575.03;5085511;28;20016;-69
2023/02/08 06:21:47;;;;;;;0.50;0.50;;;;;;;3.38;100.00;102572.31;5067312;28;20050;-69
2023/02/08 06:24:15;;;;;;;0.50;0.50;;;;;;;3.35;100.00;102570.44;5087018;28;20024;-69
2023/02/08 06:26:41;;;;;;;0.50;0.50;;;;;;;3.39;100.00;102579.19;5085283;28;20024;-70
2023/02/08 06:29:06;;;;;;;0.50;0.50;;;;;;;3.37;100.00;102582.50;5085243;28;20056;-69
2023/02/08 06:31:32;;;;;;;0.50;0.50;;;;;;;3.38;100.00;102586.81;5085365;28;20032;-69
2023/02/08 06:33:57;;;;;;;0.50;0.50;;;;;;;3.37;100.00;102583.34;5085218;28;20020;-69
2023/02/08 06:36:22;;;;;;;0.50;0.50;;;;;;;3.32;100.00;102575.38;5067044;28;20020;-69
2023/02/08 06:38:48;;;;;;;0.50;0.50;;;;;;;3.37;100.00;102590.19;5085117;28;20025;-70
2023/02/08 06:41:13;;;;;;;0.50;0.50;;;;;;;3.34;100.00;102589.22;5084971;28;20036;-71
2023/02/08 06:43:39;;;;;;;0.50;0.50;;;;;;;3.33;100.00;102576.28;5084728;28;20055;-70
2023/02/08 06:46:07;;;;;;;0.50;0.50;;;;;;;3.30;100.00;102581.25;5085214;28;20028;-70
2023/02/08 06:48:33;;;;;;;0.50;0.50;;;;;;;3.31;100.00;102585.56;5085101;28;20041;-70
2023/02/08 06:50:58;;;;;;;0.50;0.50;;;;;;;3.25;100.00;102577.53;5085670;28;20035;-71
2023/02/08 06:53:24;;;;;;;0.45;0.45;;;;;;;3.24;100.00;102579.22;5085420;28;20056;-70
2023/02/08 06:55:50;;;;;;;0.50;0.50;;;;;;;3.25;100.00;102577.53;5085133;28;20021;-70
2023/02/08 06:58:16;;;;;;;0.50;0.50;;;;;;;3.22;100.00;102581.72;5085082;28;20025;-70
2023/02/08 07:00:44;;;;;;;0.50;0.50;;;;;;;3.21;100.00;102589.31;5085330;28;20031;-70
2023/02/08 07:03:10;;;;;;;0.50;0.50;;;;;;;3.18;100.00;102589.16;5067290;28;20028;-70
2023/02/08 07:05:35;;;;;;;0.50;0.50;;;;;;;3.17;100.00;102583.13;5085352;28;20554;-71
2023/02/08 07:08:01;;;;;;;0.50;0.50;;;;;;;3.20;100.00;102595.25;5085167;28;20098;-71
2023/02/08 07:10:26;;;;;;;0.50;0.50;;;;;;;3.18;100.00;102599.41;5085119;28;20119;-70
2023/02/08 07:12:52;;;;;;;0.50;0.50;;;;;;;3.17;100.00;102584.78;5085207;28;20029;-70
2023/02/08 07:15:17;;;;;;;0.50;0.50;;;;;;;3.19;100.00;102590.91;5085078;28;20028;-70
2023/02/08 07:17:43;;;;;;;0.50;0.50;;;;;;;3.20;100.00;102591.00;5085109;28;20012;-70
2023/02/08 07:20:10;;;;;;;0.50;0.50;;;;;;;3.20;100.00;102596.13;5085280;28;20042;-70
2023/02/08 07:22:36;;;;;;;0.57;0.57;;;;;;;3.19;100.00;102591.81;5085167;28;20051;-71
2023/02/08 07:25:02;;;;;;;0.50;0.50;;;;;;;3.19;100.00;102596.94;5085075;28;20028;-71
2023/02/08 07:27:27;;;;;;;0.50;0.50;;;;;;;3.20;100.00;102593.56;5085134;28;20028;-70
2023/02/08 07:29:53;;;;;;;0.50;0.50;;;;;;;3.21;100.00;102595.31;5084874;28;20491;-71
2023/02/08 07:32:18;;;;;;;0.50;0.50;;;;;;;3.22;100.00;102602.25;5085059;28;20055;-70
2023/02/08 07:34:45;;;;;;;0.43;0.43;;;;;;;3.21;100.00;102590.19;5084971;28;20038;-70
2023/02/08 07:37:10;;;;;;;0.50;0.50;;;;;;;3.24;100.00;102606.56;5085011;28;20021;-71
2023/02/08 07:39:36;;;;;;;0.50;0.50;;;;;;;3.27;100.00;102605.06;5088674;28;20046;-70
2023/02/08 07:42:02;;;;;;;0.50;0.50;;;;;;;3.30;100.00;102601.78;5088756;28;20028;-71
2023/02/08 07:44:27;;;;;;;0.50;0.50;;;;;;;3.29;100.00;102602.59;5088459;28;20024;-70
2023/02/08 07:46:52;;;;;;;0.60;0.60;;;;;;;3.27;100.00;102610.22;5088477;28;20100;-69
2023/02/08 07:49:18;;;;;;;0.55;0.55;;;;;;;3.30;100.00;102602.69;5088783;28;20024;-71
2023/02/08 07:51:43;;;;;;;0.50;0.50;;;;;;;3.29;100.00;102595.75;5088608;28;20107;-70
2023/02/08 07:54:09;;;;;;;0.50;0.50;;;;;;;3.25;100.00;102590.38;5088522;28;20059;-70
2023/02/08 07:56:34;;;;;;;0.50;0.50;;;;;;;3.30;100.00;102599.22;5088560;28;20029;-70
2023/02/08 07:58:59;;;;;;;0.50;0.50;;;;;;;3.29;100.00;102606.03;5088395;28;20020;-70
2023/02/08 08:01:25;;;;;;;0.50;0.50;;;;;;;3.28;100.00;102616.22;5088593;28;20384;-71
2023/02/08 08:03:51;;;;;;;0.50;0.50;;;;;;;3.24;100.00;102610.03;5088596;28;20380;-69
2023/02/08 08:06:18;;;;;;;0.50;0.50;;;;;;;3.21;100.00;102613.28;5088058;28;20089;-69
2023/02/08 08:08:46;;;;;;;0.57;0.57;;;;;;;3.20;100.00;102600.38;5088287;28;20044;-69
2023/02/08 08:11:12;;;;;;;0.50;0.50;;;;;;;3.20;100.00;102606.41;5088254;28;20020;-70
2023/02/08 08:13:38;;;;;;;0.40;0.40;;;;;;;3.16;100.00;102601.00;5087981;28;20020;-69
2023/02/08 08:16:03;;;;;;;0.50;0.50;;;;;;;3.14;100.00;102608.63;5070000;28;20077;-70
2023/02/08 08:18:30;;;;;;;0.50;0.50;;;;;;;3.13;100.00;102609.38;5088272;28;20376;-70
2023/02/08 08:20:55;;;;;;;0.50;0.50;;;;;;;3.09;100.00;102599.75;5088069;28;20078;-69
2023/02/08 08:23:21;;;;;;;0.50;0.50;;;;;;;3.12;100.00;102607.63;5069845;28;20033;-70
2023/02/08 08:25:46;;;;;;;1.05;1.05;;;;;;;3.12;100.00;102610.19;5087761;28;20025;-70
2023/02/08 08:28:11;;;;;;;0.50;0.50;;;;;;;3.12;100.00;102605.06;5087684;28;20088;-70
2023/02/08 08:30:37;;;;;;;0.50;0.50;;;;;;;3.14;100.00;102608.63;5069904;28;20020;-70
2023/02/08 08:33:02;;;;;;;0.50;0.50;;;;;;;3.15;100.00;102604.34;5087895;28;20453;-70
2023/02/08 08:35:28;;;;;;;0.50;0.50;;;;;;;3.11;100.00;102603.31;5087880;28;20096;-71
2023/02/08 08:37:53;;;;;;;0.47;0.47;;;;;;;3.14;100.00;102605.16;5087550;28;20047;-70
2023/02/08 08:40:19;;;;;;;0.50;0.50;;;;;;;3.15;100.00;102618.06;5087744;28;20028;-70
2023/02/08 08:42:44;;;;;;;0.43;0.43;;;;;;;3.17;100.00;102615.59;5087620;28;20040;-70
2023/02/08 08:45:10;;;;;;;0.47;0.47;;;;;;;3.18;100.00;102620.81;5087366;28;20028;-70
2023/02/08 08:47:35;;;;;;;0.50;0.50;;;;;;;3.18;100.00;102618.25;5087176;28;20044;-71
2023/02/08 08:50:01;;;;;;;0.50;0.50;;;;;;;3.15;100.00;102614.63;5087098;28;20089;-70
2023/02/08 08:52:26;;;;;;;0.50;0.50;;;;;;;3.18;100.00;102612.25;5087502;28;20024;-71
2023/02/08 08:54:52;;;;;;;0.50;0.50;;;;;;;3.18;100.00;102618.25;5087183;28;20046;-70
2023/02/08 08:57:17;;;;;;;0.50;0.50;;;;;;;3.19;100.00;102609.78;5087457;28;20024;-69
2023/02/08 08:59:42;;;;;;;0.50;0.50;;;;;;;3.17;100.00;102601.09;5087101;28;20024;-70
2023/02/08 09:02:14;;;;;;;0.47;0.47;;;;;;;3.20;100.00;102624.38;5069217;28;20059;-71
2023/02/08 09:04:40;;;;;;;0.50;0.50;;;;;;;3.19;100.00;102616.56;5087244;28;20028;-70
2023/02/08 09:07:06;;;;;;;0.50;0.50;;;;;;;3.17;100.00;102613.94;5087314;28;20058;-71
2023/02/08 09:09:31;;;;;;;0.50;0.50;;;;;;;3.22;100.00;102624.47;5087196;28;20035;-70
2023/02/08 09:11:56;;;;;;;0.50;0.50;;;;;;;3.17;100.00;102619.06;5087095;28;20060;-69
2023/02/08 09:14:22;;;;;;;0.50;0.50;;;;;;;3.22;100.00;102627.03;5068975;28;20028;-69
2023/02/08 09:16:48;;;;;;;0.50;0.50;;;;;;;3.24;100.00;102621.97;5086964;28;20091;-70
2023/02/08 09:19:15;;;;;;;0.55;0.55;;;;;;;3.24;100.00;102620.31;5086953;28;20457;-69
2023/02/08 09:21:40;;;;;;;0.50;0.50;;;;;;;3.24;100.00;102620.31;5088572;28;20096;-70
2023/02/08 09:24:06;;;;;;;0.50;0.50;;;;;;;3.28;100.00;102637.66;5088219;28;20043;-70
2023/02/08 09:26:32;;;;;;;0.50;0.50;;;;;;;3.22;100.00;102624.47;5086961;28;20451;-70
2023/02/08 09:28:57;;;;;;;0.50;0.50;;;;;;;3.34;100.00;102637.09;5086514;28;20025;-69
2023/02/08 09:31:26;;;;;;;1.55;1.30;;;;;;;3.33;100.00;102635.34;5086788;28;20025;-70
2023/02/08 09:33:53;;;;;;;1.48;1.40;;;;;;;3.34;100.00;102638.00;5086625;28;20521;-70
2023/02/08 09:36:21;;;;;;;0.50;0.50;;;;;;;3.36;100.00;102638.09;5086741;28;20048;-70
2023/02/08 09:38:47;;;;;;;2.05;1.50;;;;;;;3.36;100.00;102635.53;5086841;28;20021;-71
2023/02/08 09:41:48;;;;;;;0.40;0.40;;;;;;;3.38;100.00;102644.22;5086669;28;20538;-69
2023/02/08 09:44:31;;;;;;;0.47;0.47;;;;;;;3.39;100.00;102640.81;5068342;28;20035;-70
2023/02/08 09:47:10;;;;;;;0.50;0.50;;;;;;;3.34;100.00;102638.00;5086977;28;20092;-70
2023/02/08 09:49:42;;;;;;;0.50;0.50;;;;;;;3.29;100.00;102631.69;5087118;28;20051;-70
2023/02/08 09:52:22;;;;;;;0.50;0.50;;;;;;;3.31;100.00;102627.56;5086934;28;20028;-70
2023/02/08 09:54:53;;;;;;;0.50;0.50;;;;;;;3.34;100.00;102631.97;5087065;28;20078;-71
2023/02/08 09:57:23;;;;;;;0.60;0.60;;;;;;;3.35;100.00;102637.19;5086177;28;20025;-71
2023/02/08 09:59:54;;;;;;;0.50;0.50;;;;;;;3.34;100.00;102639.66;5085711;28;20032;-72
2023/02/08 10:02:25;;;;;;;0.60;0.60;;;;;;;3.31;100.00;102627.56;5085750;28;20464;-72
2023/02/08 10:05:10;;;;;;;0.50;0.50;;;;;;;3.25;100.00;102622.06;5086148;28;20028;-72
2023/02/08 10:07:38;;;;;;;0.50;0.50;;;;;;;3.28;100.00;102623.91;5086049;28;20583;-71
2023/02/08 10:10:10;;;;;;;0.50;0.50;;;;;;;3.25;100.00;102618.59;5086019;28;20040;-71
2023/02/08 10:13:12;;;;;;;0.50;0.50;;;;;;;3.28;100.00;102621.34;5086449;28;20493;-71
2023/02/08 10:16:01;;;;;;;0.47;0.47;;;;;;;3.22;100.00;102617.66;5085911;28;20028;-71
2023/02/08 10:18:32;;;;;;;0.50;0.50;;;;;;;3.28;100.00;102623.91;5067839;28;20024;-72
2023/02/08 10:21:25;;;;;;;0.43;0.43;;;;;;;3.25;100.00;102624.63;5085915;28;20035;-70
2023/02/08 10:24:20;;;;;;;0.50;0.50;;;;;;;3.26;100.00;102622.97;5085857;28;20138;-71
2023/02/08 10:26:54;;;;;;;0.50;0.50;;;;;;;3.20;100.00;102611.53;5068274;28;20036;-70
2023/02/08 10:30:05;;;;;;;0.50;0.50;;;;;;;3.23;100.00;102613.38;5085371;28;20035;-70
2023/02/08 10:32:43;;;;;;;0.60;0.60;;;;;;;3.22;100.00;102612.53;5085668;28;20024;-71
2023/02/08 10:35:15;;;;;;;0.50;0.50;;;;;;;3.21;100.00;102615.84;5085620;28;20029;-70
2023/02/08 10:37:43;;;;;;;0.50;0.50;;;;;;;3.21;100.00;102621.00;5085665;28;20095;-71
2023/02/08 10:40:17;;;;;;;0.50;0.50;;;;;;;3.28;100.00;102629.94;5085544;28;20051;-70
2023/02/08 10:42:47;;;;;;;0.50;0.50;;;;;;;3.28;100.00;102618.78;5085438;28;20044;-71
2023/02/08 10:45:16;;;;;;;0.50;0.50;;;;;;;3.36;100.00;102630.38;5085318;28;20115;-71
2023/02/08 10:47:50;;;;;;;0.50;0.50;;;;;;;3.37;100.00;102618.44;5085249;28;20045;-70
2023/02/08 10:50:38;;;;;;;0.50;0.50;;;;;;;3.41;100.00;102620.38;5085539;28;20095;-70
2023/02/08 10:53:04;;;;;;;0.60;0.60;;;;;;;3.41;100.00;102612.66;5085509;28;20031;-69
2023/02/08 10:55:34;;;;;;;0.50;0.50;;;;;;;3.43;100.00;102611.97;5067353;28;20028;-70
2023/02/08 10:58:03;;;;;;;0.60;0.60;;;;;;;3.44;100.00;102611.16;5085391;28;20026;-70
2023/02/08 11:00:36;;;;;;;0.50;0.50;;;;;;;3.46;100.00;102612.16;5085149;28;20077;-71
2023/02/08 11:03:13;;;;;;;0.60;0.60;;;;;;;3.46;100.00;102596.75;5067256;28;20055;-70
2023/02/08 11:05:39;;;;;;;0.50;0.50;;;;;;;3.47;100.00;102592.47;5085324;28;20025;-70
2023/02/08 11:08:10;;;;;;;0.50;0.50;;;;;;;3.53;100.00;102602.22;5085174;28;20024;-71
2023/02/08 11:10:38;;;;;;;0.50;0.50;;;;;;;3.52;100.00;102593.63;5067212;28;20042;-72
2023/02/08 11:13:13;;;;;;;0.50;0.50;;;;;;;3.54;100.00;102591.13;5088008;28;20028;-71
2023/02/08 11:15:57;;;;;;;0.40;0.40;;;;;;;3.54;100.00;102586.91;5089234;28;20032;-72
2023/02/08 11:18:33;;;;;;;0.45;0.45;;;;;;;3.56;100.00;102586.97;5089136;28;20031;-72
2023/02/08 11:21:02;;;;;;;0.50;0.50;;;;;;;3.56;100.00;102586.97;5089143;28;20021;-72
2023/02/08 11:23:38;;;;;;;0.50;0.50;;;;;;;3.54;100.00;102592.03;5089053;28;20044;-73
2023/02/08 11:26:48;;;;;;;0.50;0.50;;;;;;;3.53;100.00;102585.09;5088842;28;20024;-72
2023/02/08 11:29:15;;;;;;;0.40;0.40;;;;;;;3.47;100.00;102575.38;5068113;28;20384;-72
2023/02/08 11:32:02;;;;;;;0.50;0.50;;;;;;;3.38;100.00;102556.00;5089000;28;20067;-72
2023/02/08 11:34:31;;;;;;;0.50;0.50;;;;;;;3.45;100.00;102583.81;5088838;28;20053;-72
2023/02/08 11:37:00;;;;;;;0.52;0.52;;;;;;;3.43;100.00;102581.16;5088782;28;20021;-70
2023/02/08 11:39:33;;;;;;;0.55;0.55;;;;;;;3.36;100.00;102573.88;5088719;28;20107;-72